Carolina, PR (00986)

1:29 AM AST on August 30, 2014 (GMT -0400)
Manejo de Emergencias | Change Station
CLOSE
Current Station
Personal Weather Station
Location: Carolina, PR
Elevation: 40 ft
Nearby Weather Stations

Elev 40 ft 18.38 °N, 65.97 °W | Updated 6 minutes ago

Partly Cloudy
Partly Cloudy
75.7 °F
Feels Like 76 °F
N
0.0
Wind Variable Wind from West
Gusts 6.0 mph

Today
High -- | Low -- °F
--% Chance of Precip.
Yesterday
High -- | Low -- °F
Precip. -- in
6:09 AM 6:39 PM
Waxing Crescent, 19% visible
Pressure 30.06 in
Visibility 10.0 miles
Clouds Few 2200 ft
Heat Index 76 °F
Dew Point 72 °F
Humidity 89%
Rainfall -999.00 in
Snow Depth Not available.
UV 0 out of 12
Pollen Not available.
Air Quality Not available.
Flu Activity Not available.
METAR TJSJ 300456Z 00000KT 10SM FEW022 27/24 A3006 RMK AO2 SLP178 T02670244

More Conditions Fewer Conditions

Pressure 30.06 in
Visibility 10.0 miles
Clouds Few 2200 ft
Heat Index 76 °F
Dew Point 72 °F
Humidity 89%
Rainfall -999.00 in
Snow Depth Not available.
UV 0 out of 12
Pollen Not available.
Air Quality Not available.
Flu Activity Not available.
METAR TJSJ 300456Z 00000KT 10SM FEW022 27/24 A3006 RMK AO2 SLP178 T02670244

More Conditions Fewer Conditions

10-Day Weather Forecast

Almanac

Astronomy

Aug. 30, 2014 Rise Set
Actual Time 6:09 AM AST 6:39 PM AST
Civil Twilight 5:46 AM AST 7:01 PM AST
Nautical Twilight 5:20 AM AST 7:27 PM AST
Astronomical Twilight 4:54 AM AST 7:53 PM AST
Moon 10:08 AM AST 9:57 PM AST
Length of Visible Light 13h 15m
Length of Day
12h 30m
Tomorrow will be 0m 59s shorter.
Waxing Crescent, 19% of the Moon is Illuminated
Today
Waxing Crescent
Sep 2
First Quarter
Sep 8
Full
Sep 15
Last Quarter
Sep 24
New

Community

WunderPhotos

Upload Photos

1,748,465 photos uploaded!

Nearby

Snow Depth

Station Depth Elevation
No new snow has been reported.

Earthquake Activity

City Distance Mag. Time & Date
No recent earthquake activity has been reported nearby.
Minimum magnitude displayed is 2.5.

Coastal Water Temperatures

Place Temperature
San Juan, PR 84.9 °F
Mayaguez, PR 84.0 °F
Esperanza, PR 84.0 °F

Nearby Weather Stations